CheckWX is a tool to help pilots better visualize weather data.  It is not intended as a substitute for an official pre-flight weather briefing.

09:28:13 UTC

KPGA METAR
Page Municipal Airport
Page, Arizona, USA
Current

35 mins ago

KPGA 200853Z AUTO 31003KT 10SM CLR M03/M12 A2989 RMK AO2 SLP131 T10331117 55008 TSNO
Observed
Feb-20 @ 08:53 UTC
Wind
  • 310° at 3 KTS
Visibility
16,093 meters
Flight Rules
VFR
Cloud Levels
  • Clear skies
Temperature
-3°C / 27°F
Dewpoint
-12°C / 10°F
Humidity
50%
Altimeter
29.89" Hg
Pressure
1013.1 hPa
Previous

2 hours ago

KPGA 200753Z AUTO 30003KT 10SM CLR M03/M10 A2988 RMK AO2 SLP130 T10331100 TSNO
Observed
Feb-20 @ 07:53 UTC
Wind
  • 300° at 3 KTS
Visibility
16,093 meters
Flight Rules
VFR
Cloud Levels
  • Clear skies
Temperature
-3°C / 27°F
Dewpoint
-10°C / 14°F
Humidity
59%
Altimeter
29.88" Hg
Pressure
1013 hPa
Previous

3 hours ago

KPGA 200653Z AUTO 30004KT 10SM CLR M03/M11 A2990 RMK AO2 SLP141 T10331111 400281044 TSNO
Observed
Feb-20 @ 06:53 UTC
Wind
  • 300° at 4 KTS
Visibility
16,093 meters
Flight Rules
VFR
Cloud Levels
  • Clear skies
Temperature
-3°C / 27°F
Dewpoint
-11°C / 12°F
Humidity
54%
Altimeter
29.9" Hg
Pressure
1014.1 hPa